Time;durP1;ratioP1;P1;durP2;ratioP2;P2;SDS_P1;SDS_P2;PMS_P1;PMS_P2;Temp;Humidity;BMP_temperature;BMP_pressure;BME280_temperature;BME280_humidity;BME280_pressure;Samples;Min_cycle;Max_cycle;Signal;HPM_P1;HPM_P2
2022/05/18 00:01:06;;;;;;;1.47;0.77;;;8.60;56.70;;;;;;5081555;28;20201;-69
2022/05/18 00:03:36;;;;;;;2.27;1.30;;;8.60;56.90;;;;;;5074518;28;20323;-69
2022/05/18 00:06:05;;;;;;;1.63;1.10;;;8.50;57.00;;;;;;5073238;28;20211;-69
2022/05/18 00:08:35;;;;;;;1.30;1.00;;;8.50;57.30;;;;;;5068785;28;20233;-68
2022/05/18 00:11:05;;;;;;;1.13;0.80;;;8.50;57.60;;;;;;5072443;28;20261;-69
2022/05/18 00:13:33;;;;;;;3.07;0.80;;;8.50;57.60;;;;;;5076360;28;20235;-68
2022/05/18 00:16:00;;;;;;;3.07;1.00;;;8.50;57.80;;;;;;5087471;28;20202;-67
2022/05/18 00:18:27;;;;;;;3.07;1.10;;;8.40;57.90;;;;;;5073613;28;20213;-67
2022/05/18 00:20:54;;;;;;;2.33;1.10;;;8.40;57.90;;;;;;5066740;28;20256;-68
2022/05/18 00:23:21;;;;;;;2.77;1.03;;;8.40;58.00;;;;;;5066652;28;20222;-68
2022/05/18 00:25:48;;;;;;;2.00;1.17;;;8.40;58.20;;;;;;5076017;28;20216;-68
2022/05/18 00:28:15;;;;;;;2.10;0.97;;;8.40;58.90;;;;;;5077278;28;20208;-69
2022/05/18 00:30:43;;;;;;;1.83;0.97;;;8.40;58.30;;;;;;5070300;28;20264;-68
2022/05/18 00:33:11;;;;;;;1.60;1.00;;;8.30;58.30;;;;;;5074170;28;20296;-68
2022/05/18 00:35:39;;;;;;;2.23;0.90;;;8.30;58.40;;;;;;5071495;28;20206;-67
2022/05/18 00:38:08;;;;;;;1.67;1.00;;;8.30;58.50;;;;;;5066897;28;20206;-69
2022/05/18 00:40:36;;;;;;;1.13;1.00;;;8.20;58.70;;;;;;5082894;28;20205;-67
2022/05/18 00:43:04;;;;;;;2.40;0.97;;;8.30;58.90;;;;;;5077206;28;20231;-67
2022/05/18 00:45:31;;;;;;;1.10;1.00;;;8.20;59.40;;;;;;5074284;28;20692;-68
2022/05/18 00:47:59;;;;;;;2.00;0.90;;;8.20;59.70;;;;;;5066999;28;20236;-67
2022/05/18 00:50:29;;;;;;;1.77;1.20;;;8.20;59.90;;;;;;5075087;28;20288;-67
2022/05/18 00:53:03;;;;;;;2.30;1.00;;;8.20;60.10;;;;;;5074039;28;20291;-68
2022/05/18 00:55:32;;;;;;;0.80;0.80;;;8.10;60.30;;;;;;5074703;28;20636;-69
2022/05/18 00:58:07;;;;;;;1.60;1.00;;;8.20;60.60;;;;;;5070398;28;20561;-68
2022/05/18 01:00:35;;;;;;;0.97;0.87;;;8.10;60.50;;;;;;5066954;28;20263;-67
2022/05/18 01:03:11;;;;;;;2.10;1.20;;;8.20;60.60;;;;;;5070631;28;20229;-68
2022/05/18 01:05:40;;;;;;;1.13;1.03;;;8.10;60.60;;;;;;5072164;28;20206;-69
2022/05/18 01:08:08;;;;;;;1.73;1.10;;;8.10;60.50;;;;;;5073325;28;20212;-67
2022/05/18 01:10:35;;;;;;;2.03;1.00;;;8.20;60.60;;;;;;5071294;28;20205;-68
2022/05/18 01:13:03;;;;;;;1.13;1.00;;;8.10;60.60;;;;;;5075052;28;20668;-68
2022/05/18 01:15:32;;;;;;;3.57;1.10;;;8.10;60.80;;;;;;5074626;28;20248;-68
2022/05/18 01:17:59;;;;;;;2.73;0.90;;;8.10;60.90;;;;;;5070256;28;20202;-68
2022/05/18 01:20:33;;;;;;;2.90;1.10;;;8.00;61.20;;;;;;5074341;28;20256;-68
2022/05/18 01:23:26;;;;;;;0.93;0.80;;;8.00;61.50;;;;;;5064000;28;20209;-68
2022/05/18 01:26:06;;;;;;;1.80;1.13;;;8.00;61.80;;;;;;5068489;28;20217;-68
2022/05/18 01:28:39;;;;;;;1.27;0.97;;;8.00;62.00;;;;;;5065485;28;20312;-68
2022/05/18 01:31:06;;;;;;;1.00;0.80;;;8.00;62.40;;;;;;5071413;28;20205;-68
2022/05/18 01:33:35;;;;;;;1.07;0.93;;;8.00;62.60;;;;;;5074410;28;20197;-68
2022/05/18 01:36:02;;;;;;;2.23;0.93;;;8.00;62.90;;;;;;5071113;28;20237;-68
2022/05/18 01:38:31;;;;;;;1.90;0.87;;;8.00;63.10;;;;;;5066242;28;20297;-68
2022/05/18 01:41:02;;;;;;;3.33;1.00;;;8.00;63.30;;;;;;5065363;28;20209;-69
2022/05/18 01:43:35;;;;;;;1.73;1.20;;;8.00;63.40;;;;;;5073716;28;20213;-69
2022/05/18 01:46:05;;;;;;;2.23;1.07;;;8.00;63.50;;;;;;5074093;28;20288;-67
2022/05/18 01:48:34;;;;;;;1.77;1.10;;;7.90;63.40;;;;;;5073941;28;20228;-68
2022/05/18 01:51:02;;;;;;;1.63;1.00;;;7.90;64.20;;;;;;5066572;28;20225;-68
2022/05/18 01:53:31;;;;;;;1.33;0.90;;;7.80;64.50;;;;;;5074650;28;20240;-68
2022/05/18 01:55:58;;;;;;;1.13;0.77;;;7.80;64.80;;;;;;5071622;28;20289;-68
2022/05/18 01:58:25;;;;;;;1.90;0.93;;;7.80;65.10;;;;;;5075097;28;20726;-68
2022/05/18 02:00:52;;;;;;;1.60;0.90;;;7.80;65.10;;;;;;5073508;28;20202;-68
2022/05/18 02:03:22;;;;;;;1.27;1.10;;;7.80;65.10;;;;;;5066702;28;20218;-69
2022/05/18 02:05:50;;;;;;;1.10;0.90;;;7.90;65.30;;;;;;5072167;28;20658;-69
2022/05/18 02:08:17;;;;;;;1.30;1.00;;;7.80;65.10;;;;;;5065631;28;20225;-69
2022/05/18 02:10:45;;;;;;;2.03;1.23;;;7.90;65.20;;;;;;5073286;28;20219;-68
2022/05/18 02:13:12;;;;;;;1.23;1.13;;;7.90;65.30;;;;;;5074832;28;20281;-68
2022/05/18 02:15:39;;;;;;;3.30;1.00;;;7.90;65.30;;;;;;5086054;28;20254;-68
2022/05/18 02:18:06;;;;;;;1.20;1.00;;;7.80;65.20;;;;;;5085156;28;20278;-67
2022/05/18 02:20:35;;;;;;;6.63;1.50;;;7.80;65.40;;;;;;5084179;28;20295;-67
2022/05/18 02:23:02;;;;;;;2.60;0.90;;;7.80;65.60;;;;;;5077798;28;20262;-69
2022/05/18 02:25:30;;;;;;;1.33;1.03;;;7.80;65.70;;;;;;5076939;28;20209;-68
2022/05/18 02:27:57;;;;;;;3.10;1.07;;;7.80;65.80;;;;;;5082058;28;20665;-68
2022/05/18 02:30:24;;;;;;;2.30;1.07;;;7.80;65.90;;;;;;5085087;28;20221;-68
2022/05/18 02:32:51;;;;;;;2.10;1.30;;;7.70;66.20;;;;;;5080739;28;20268;-68
2022/05/18 02:35:18;;;;;;;2.83;1.10;;;7.70;66.60;;;;;;5079505;28;20212;-67
2022/05/18 02:37:47;;;;;;;2.37;1.17;;;7.60;66.60;;;;;;5080298;28;20651;-68
2022/05/18 02:40:14;;;;;;;1.57;0.93;;;7.60;67.00;;;;;;5077479;28;20627;-68
2022/05/18 02:42:41;;;;;;;1.30;1.10;;;7.60;67.10;;;;;;5077365;28;20260;-69
2022/05/18 02:45:09;;;;;;;3.53;1.90;;;7.60;67.40;;;;;;5077896;28;20576;-68
2022/05/18 02:47:36;;;;;;;2.40;1.20;;;7.60;67.90;;;;;;5077792;28;20297;-68
2022/05/18 02:50:04;;;;;;;3.70;1.40;;;7.60;68.10;;;;;;5072950;28;20204;-69
2022/05/18 02:52:31;;;;;;;1.87;1.10;;;7.60;68.20;;;;;;5063231;28;20677;-67
2022/05/18 02:57:44;;;;;;;3.97;1.23;;;7.50;68.30;;;;;;5072538;28;20196;-67
2022/05/18 03:00:14;;;;;;;1.10;1.00;;;7.60;68.80;;;;;;5074614;28;20201;-68
2022/05/18 03:02:41;;;;;;;1.77;1.23;;;7.60;69.00;;;;;;5089288;28;20221;-67
2022/05/18 03:05:08;;;;;;;1.93;1.00;;;7.60;69.20;;;;;;5075794;28;20213;-67
2022/05/18 03:07:35;;;;;;;2.50;0.90;;;7.70;69.20;;;;;;5075619;28;20206;-68
2022/05/18 03:10:04;;;;;;;2.77;1.00;;;7.70;69.10;;;;;;5076379;28;20223;-68
2022/05/18 03:12:31;;;;;;;1.83;1.00;;;7.80;69.30;;;;;;5069221;28;20202;-68
2022/05/18 03:14:58;;;;;;;3.17;1.30;;;7.80;69.30;;;;;;5076765;28;20259;-67
2022/05/18 03:17:25;;;;;;;2.40;1.07;;;7.90;69.40;;;;;;5077359;28;20241;-67
2022/05/18 03:19:52;;;;;;;3.87;1.30;;;7.80;69.40;;;;;;5076483;28;20208;-68
2022/05/18 03:25:05;;;;;;;2.70;1.47;;;7.80;69.90;;;;;;5069269;28;20209;-69
2022/05/18 03:27:33;;;;;;;2.60;0.97;;;7.90;69.90;;;;;;5070229;28;20732;-68
2022/05/18 03:29:59;;;;;;;3.13;2.10;;;8.00;70.10;;;;;;5076023;28;20307;-68
2022/05/18 03:32:26;;;;;;;2.90;1.27;;;8.00;70.00;;;;;;5077842;28;20702;-68
2022/05/18 03:34:53;;;;;;;3.10;1.43;;;8.10;69.90;;;;;;5076367;28;20247;-68
2022/05/18 03:37:21;;;;;;;2.67;1.30;;;8.10;70.10;;;;;;5076521;28;20227;-69
2022/05/18 03:39:48;;;;;;;1.10;1.00;;;8.10;70.10;;;;;;5080151;28;20201;-68
2022/05/18 03:42:16;;;;;;;2.47;1.17;;;8.20;70.20;;;;;;5062579;28;20251;-68
2022/05/18 03:44:43;;;;;;;2.00;1.10;;;8.20;70.50;;;;;;5075684;28;20307;-68
2022/05/18 03:47:10;;;;;;;2.63;1.23;;;8.20;70.60;;;;;;5076091;28;20660;-69
2022/05/18 03:49:37;;;;;;;1.27;1.00;;;8.20;70.60;;;;;;5068875;28;20205;-67
2022/05/18 03:52:05;;;;;;;1.80;1.10;;;8.20;70.80;;;;;;5076853;28;20244;-68
2022/05/18 03:54:32;;;;;;;2.43;1.10;;;8.20;71.10;;;;;;5079206;28;20308;-68
2022/05/18 03:57:00;;;;;;;1.77;1.13;;;8.20;71.50;;;;;;5076064;28;20212;-67
2022/05/18 03:59:28;;;;;;;3.73;1.50;;;8.20;71.70;;;;;;5074285;28;20237;-68
2022/05/18 04:01:55;;;;;;;2.93;1.20;;;8.10;72.00;;;;;;5072403;28;20721;-67
2022/05/18 04:04:22;;;;;;;1.27;1.07;;;8.10;72.30;;;;;;5076428;28;20298;-69
2022/05/18 04:06:49;;;;;;;1.67;1.00;;;8.00;72.60;;;;;;5076273;28;20673;-68
2022/05/18 04:09:17;;;;;;;1.57;1.10;;;8.00;73.70;;;;;;5075370;28;20300;-68
2022/05/18 04:11:44;;;;;;;1.93;1.00;;;8.00;73.40;;;;;;5072876;28;20205;-69
2022/05/18 04:14:10;;;;;;;2.50;1.10;;;8.00;73.60;;;;;;5074845;28;20275;-68
2022/05/18 04:16:39;;;;;;;4.20;1.40;;;8.10;73.30;;;;;;5078701;28;20316;-67
2022/05/18 04:19:06;;;;;;;1.47;1.10;;;8.10;73.90;;;;;;5067438;28;20292;-68
2022/05/18 04:21:32;;;;;;;5.33;1.23;;;8.20;73.90;;;;;;5076543;28;20262;-69
2022/05/18 04:23:59;;;;;;;3.43;1.27;;;8.20;74.10;;;;;;5080373;28;20217;-67
2022/05/18 04:26:26;;;;;;;2.63;1.33;;;8.30;73.90;;;;;;5078648;28;20205;-68
2022/05/18 04:28:53;;;;;;;3.03;1.50;;;8.40;73.80;;;;;;5071647;28;20252;-68
2022/05/18 04:31:20;;;;;;;3.60;1.40;;;8.40;73.70;;;;;;5071798;28;20255;-68
2022/05/18 04:33:48;;;;;;;3.80;1.23;;;8.40;73.50;;;;;;5076372;28;20288;-68
2022/05/18 04:36:15;;;;;;;2.80;1.20;;;8.40;73.50;;;;;;5077319;28;20896;-67
2022/05/18 04:38:42;;;;;;;1.93;1.10;;;8.30;73.50;;;;;;5073734;28;20201;-68
2022/05/18 04:41:10;;;;;;;1.37;1.10;;;8.30;74.10;;;;;;5075367;28;20491;-70
2022/05/18 04:43:37;;;;;;;7.17;1.43;;;8.40;74.20;;;;;;5077190;28;20235;-68
2022/05/18 04:46:04;;;;;;;1.37;1.07;;;8.30;74.00;;;;;;5075244;28;20205;-68
2022/05/18 04:48:32;;;;;;;3.00;1.20;;;8.30;74.00;;;;;;5074085;28;20541;-68
2022/05/18 04:51:04;;;;;;;1.13;1.00;;;8.40;75.00;;;;;;5074777;28;20232;-70
2022/05/18 04:53:31;;;;;;;4.57;1.87;;;8.40;74.20;;;;;;5074199;28;20197;-68
2022/05/18 04:55:58;;;;;;;2.30;1.50;;;8.50;74.90;;;;;;5073935;28;20569;-69
2022/05/18 04:58:24;;;;;;;4.23;1.50;;;8.50;74.10;;;;;;5072426;28;20201;-68
2022/05/18 05:00:58;;;;;;;2.80;1.40;;;8.60;73.80;;;;;;5062903;28;20201;-68
2022/05/18 05:03:25;;;;;;;6.20;1.20;;;8.60;73.50;;;;;;5075623;28;20213;-67
2022/05/18 05:05:52;;;;;;;1.90;1.10;;;8.70;73.30;;;;;;5069930;28;20668;-68
2022/05/18 05:08:20;;;;;;;2.50;1.60;;;8.60;72.90;;;;;;5071588;28;20224;-68
2022/05/18 05:10:47;;;;;;;1.30;1.10;;;8.70;72.90;;;;;;5074076;28;20297;-69
2022/05/18 05:13:14;;;;;;;2.70;1.20;;;8.80;73.00;;;;;;5073476;28;20205;-68
2022/05/18 05:15:41;;;;;;;4.03;1.30;;;8.80;72.60;;;;;;5071465;28;20588;-68
2022/05/18 05:18:08;;;;;;;3.13;1.30;;;8.90;72.40;;;;;;5073829;28;20216;-68
2022/05/18 05:20:35;;;;;;;3.03;1.30;;;9.00;72.30;;;;;;5075836;28;20721;-68
2022/05/18 05:23:02;;;;;;;2.47;1.17;;;9.00;71.40;;;;;;5070570;28;20296;-68
2022/05/18 05:25:30;;;;;;;5.13;1.40;;;9.10;71.50;;;;;;5069969;28;20223;-68
2022/05/18 05:27:57;;;;;;;3.10;1.43;;;9.20;71.60;;;;;;5081372;28;20236;-67
2022/05/18 05:30:24;;;;;;;2.03;1.30;;;9.30;71.40;;;;;;5076384;28;20225;-67
2022/05/18 05:32:51;;;;;;;3.77;1.33;;;9.40;71.10;;;;;;5076497;28;20296;-69
2022/05/18 05:35:18;;;;;;;1.90;1.23;;;9.50;70.80;;;;;;5067541;28;20198;-68
2022/05/18 05:37:44;;;;;;;2.90;1.20;;;9.50;70.40;;;;;;5078896;28;20300;-68
2022/05/18 05:40:12;;;;;;;2.53;1.57;;;9.60;70.20;;;;;;5075012;28;20316;-68
2022/05/18 05:42:41;;;;;;;4.07;1.47;;;9.60;70.00;;;;;;5072014;28;20300;-68
2022/05/18 05:45:09;;;;;;;3.70;1.40;;;9.60;69.80;;;;;;5073493;28;21031;-68
2022/05/18 05:47:36;;;;;;;1.30;1.20;;;9.70;69.90;;;;;;5065635;28;20242;-68
2022/05/18 05:50:04;;;;;;;4.03;1.37;;;9.80;69.80;;;;;;5071153;28;20231;-69
2022/05/18 05:52:31;;;;;;;4.57;1.53;;;9.90;69.80;;;;;;5064711;28;20217;-69
2022/05/18 05:54:59;;;;;;;3.30;2.33;;;10.00;68.40;;;;;;5074170;28;20193;-68
2022/05/18 05:57:26;;;;;;;4.33;1.47;;;10.10;68.00;;;;;;5082013;28;20303;-68
2022/05/18 05:59:54;;;;;;;4.13;1.63;;;10.20;67.80;;;;;;5092269;28;20227;-68
2022/05/18 06:02:22;;;;;;;5.03;1.43;;;10.30;67.50;;;;;;5074441;28;20209;-67
2022/05/18 06:04:48;;;;;;;4.73;1.50;;;10.40;67.00;;;;;;5077528;28;20256;-69
2022/05/18 06:07:15;;;;;;;2.97;1.37;;;10.50;66.90;;;;;;5077441;28;20274;-69
2022/05/18 06:09:42;;;;;;;4.03;1.40;;;10.70;66.60;;;;;;5070781;28;20209;-68
2022/05/18 06:12:10;;;;;;;4.57;1.60;;;10.70;66.10;;;;;;5078073;28;20204;-68
2022/05/18 06:14:37;;;;;;;2.70;1.70;;;10.80;65.80;;;;;;5082060;28;20293;-68
2022/05/18 06:17:05;;;;;;;4.27;1.73;;;10.90;66.60;;;;;;5089550;28;20260;-69
2022/05/18 06:19:33;;;;;;;2.97;1.20;;;11.00;65.30;;;;;;5076550;28;20209;-68
2022/05/18 06:22:01;;;;;;;2.60;1.67;;;11.10;65.20;;;;;;5077778;28;20204;-68
2022/05/18 06:24:28;;;;;;;5.20;1.90;;;11.20;64.90;;;;;;5077331;28;20229;-67
2022/05/18 06:26:57;;;;;;;4.23;1.33;;;11.30;64.60;;;;;;5085068;28;20212;-67
2022/05/18 06:29:24;;;;;;;2.77;1.10;;;11.40;64.00;;;;;;5077062;28;20228;-68
2022/05/18 06:31:51;;;;;;;2.90;1.10;;;11.50;63.70;;;;;;5083577;28;20247;-67
2022/05/18 06:34:21;;;;;;;3.27;1.53;;;11.60;64.10;;;;;;5087681;28;20237;-67
2022/05/18 06:36:48;;;;;;;1.87;1.20;;;11.60;63.30;;;;;;5072859;28;20219;-66
2022/05/18 06:39:16;;;;;;;3.53;1.30;;;11.60;63.30;;;;;;5077010;28;20555;-66
2022/05/18 06:41:43;;;;;;;3.00;1.33;;;11.70;63.10;;;;;;5075288;28;20205;-67
2022/05/18 06:44:10;;;;;;;2.83;1.30;;;11.80;63.20;;;;;;5072268;28;20225;-68
2022/05/18 06:46:38;;;;;;;4.53;1.00;;;11.80;62.70;;;;;;5072421;28;20224;-69
2022/05/18 06:49:05;;;;;;;2.10;1.07;;;11.80;62.30;;;;;;5070824;28;20205;-68
2022/05/18 06:51:36;;;;;;;4.73;1.40;;;11.90;62.60;;;;;;5076212;28;20260;-67
2022/05/18 06:54:04;;;;;;;4.57;1.50;;;11.90;62.40;;;;;;5075576;28;20201;-67
2022/05/18 06:56:34;;;;;;;4.63;1.77;;;11.90;62.20;;;;;;5079735;28;20202;-66
2022/05/18 06:59:02;;;;;;;3.30;2.10;;;11.90;62.40;;;;;;5076419;28;20727;-68
2022/05/18 07:01:30;;;;;;;3.73;1.50;;;11.90;62.20;;;;;;5078044;28;20288;-67
2022/05/18 07:03:58;;;;;;;6.20;1.43;;;12.00;61.90;;;;;;5082973;28;20256;-68
2022/05/18 07:06:27;;;;;;;4.53;1.60;;;12.10;61.50;;;;;;5088657;28;20297;-68
2022/05/18 07:08:57;;;;;;;5.20;1.60;;;12.10;61.20;;;;;;5090684;28;20615;-67
2022/05/18 07:11:25;;;;;;;1.50;0.97;;;12.30;61.20;;;;;;5085378;28;20209;-67
2022/05/18 07:13:53;;;;;;;4.63;1.07;;;12.40;60.40;;;;;;5077885;28;20328;-68
2022/05/18 07:16:21;;;;;;;6.23;1.20;;;12.50;59.70;;;;;;5072276;28;20504;-69
2022/05/18 07:18:48;;;;;;;3.60;1.20;;;12.60;59.10;;;;;;5074481;28;20704;-68
2022/05/18 07:21:16;;;;;;;4.77;0.87;;;12.80;58.70;;;;;;5086451;28;20303;-67
2022/05/18 07:23:43;;;;;;;3.53;1.13;;;12.90;58.20;;;;;;5080855;28;20237;-67
2022/05/18 07:26:13;;;;;;;4.33;0.90;;;12.90;57.60;;;;;;5075025;28;20205;-67
2022/05/18 07:28:40;;;;;;;5.70;0.77;;;13.00;57.50;;;;;;5073961;28;20220;-68
2022/05/18 07:31:09;;;;;;;3.87;0.93;;;13.10;57.60;;;;;;5077831;28;20266;-67
2022/05/18 07:33:36;;;;;;;1.57;0.77;;;13.10;58.00;;;;;;5067149;28;20221;-67
2022/05/18 07:36:05;;;;;;;3.60;0.90;;;13.20;57.50;;;;;;5074386;28;20263;-68
2022/05/18 07:38:34;;;;;;;1.40;0.80;;;13.30;56.70;;;;;;5075477;28;20209;-66
2022/05/18 07:41:02;;;;;;;2.60;0.80;;;13.30;56.80;;;;;;5075942;28;20697;-67
2022/05/18 07:43:30;;;;;;;8.93;1.57;;;13.50;57.00;;;;;;5070323;28;20640;-67
2022/05/18 07:45:57;;;;;;;2.63;1.03;;;13.60;57.00;;;;;;5074236;28;20559;-67
2022/05/18 07:48:25;;;;;;;2.53;1.00;;;13.70;56.50;;;;;;5076865;28;20236;-66
2022/05/18 07:50:52;;;;;;;7.67;0.70;;;13.80;56.00;;;;;;5075122;28;20237;-67
2022/05/18 07:53:20;;;;;;;3.23;1.10;;;14.00;55.90;;;;;;5075539;28;20713;-68
2022/05/18 07:55:48;;;;;;;6.87;1.07;;;14.20;55.40;;;;;;5074329;28;20206;-68
2022/05/18 07:58:17;;;;;;;2.40;0.80;;;14.30;54.70;;;;;;5068212;28;20206;-69
2022/05/18 08:00:46;;;;;;;4.03;1.10;;;14.30;54.30;;;;;;5076826;28;20250;-69
2022/05/18 08:03:13;;;;;;;1.57;0.70;;;14.40;54.40;;;;;;5081918;28;20559;-68
2022/05/18 08:05:40;;;;;;;0.83;0.80;;;14.50;54.50;;;;;;5070833;28;20222;-68
2022/05/18 08:08:12;;;;;;;3.17;1.00;;;14.60;54.40;;;;;;5076891;28;20208;-66
2022/05/18 08:16:09;;;;;;;3.30;0.97;;;15.20;54.10;;;;;;5073519;28;20243;-66
2022/05/18 08:18:36;;;;;;;2.10;1.20;;;15.30;53.60;;;;;;5067137;28;20278;-65
2022/05/18 08:21:04;;;;;;;2.23;0.83;;;15.40;53.00;;;;;;5071266;28;20244;-65
2022/05/18 08:23:31;;;;;;;1.80;0.80;;;15.50;52.50;;;;;;5070658;28;20206;-64
2022/05/18 08:25:59;;;;;;;2.00;0.80;;;15.50;52.30;;;;;;5076125;28;20748;-66
2022/05/18 08:28:27;;;;;;;2.67;0.80;;;15.60;52.10;;;;;;5071574;28;20660;-67
2022/05/18 08:30:55;;;;;;;2.73;0.80;;;15.70;51.80;;;;;;5074820;28;20616;-66
2022/05/18 08:33:24;;;;;;;4.20;1.00;;;15.80;51.50;;;;;;5074231;28;20213;-65
2022/05/18 08:35:51;;;;;;;1.20;1.00;;;15.90;51.40;;;;;;5072097;28;20201;-64
2022/05/18 08:38:19;;;;;;;3.20;0.60;;;16.00;51.40;;;;;;5077367;28;20641;-65
2022/05/18 08:40:50;;;;;;;1.67;0.60;;;16.10;51.20;;;;;;5070410;28;20200;-67
2022/05/18 08:43:24;;;;;;;3.07;0.77;;;16.30;50.20;;;;;;5073137;28;20569;-64
2022/05/18 08:46:01;;;;;;;1.97;0.80;;;16.50;49.70;;;;;;5067805;28;20213;-65
2022/05/18 08:48:42;;;;;;;1.47;0.77;;;16.60;49.20;;;;;;5069500;28;20215;-63
2022/05/18 08:51:23;;;;;;;2.37;0.60;;;16.80;48.60;;;;;;5072893;28;20201;-65
2022/05/18 08:53:58;;;;;;;2.80;1.15;;;17.00;47.90;;;;;;5070212;28;21317;-64
2022/05/18 08:56:31;;;;;;;2.70;0.73;;;17.20;47.30;;;;;;5079339;28;20199;-67
2022/05/18 08:58:58;;;;;;;2.17;0.80;;;17.30;47.10;;;;;;5083491;28;20267;-66
2022/05/18 09:01:30;;;;;;;3.88;1.50;;;17.30;46.90;;;;;;5077527;28;20453;-67
2022/05/18 09:04:06;;;;;;;2.58;1.20;;;17.40;47.50;;;;;;5074274;28;20871;-67
2022/05/18 09:06:38;;;;;;;5.55;1.60;;;17.50;47.20;;;;;;5064790;28;20320;-67
2022/05/18 09:11:54;;;;;;;7.45;1.90;;;17.90;47.70;;;;;;5070518;28;20220;-66
2022/05/18 09:14:23;;;;;;;9.50;4.20;;;18.10;47.60;;;;;;5069328;28;20239;-67
2022/05/18 09:17:00;;;;;;;9.10;2.95;;;18.20;47.50;;;;;;5077306;28;20303;-66
2022/05/18 09:19:37;;;;;;;13.65;5.15;;;18.40;46.90;;;;;;5071663;28;20205;-67
2022/05/18 09:22:15;;;;;;;28.70;10.38;;;18.60;46.60;;;;;;5067907;28;20235;-67
2022/05/18 09:24:52;;;;;;;8.30;3.20;;;18.80;46.10;;;;;;5070030;28;20220;-66
2022/05/18 09:27:42;;;;;;;17.70;7.03;;;19.00;45.70;;;;;;5085793;28;20205;-66
2022/05/18 09:30:14;;;;;;;33.90;12.27;;;18.90;45.00;;;;;;5075130;28;20264;-67
2022/05/18 09:33:01;;;;;;;2.75;1.38;;;18.90;45.50;;;;;;5082756;28;20204;-68
2022/05/18 09:35:44;;;;;;;2.00;1.00;;;19.10;45.70;;;;;;5075866;28;20189;-69
2022/05/18 09:38:16;;;;;;;2.38;1.10;;;19.20;44.50;;;;;;5071295;28;20201;-68
2022/05/18 09:40:46;;;;;;;5.95;1.73;;;19.20;44.00;;;;;;5077442;28;20276;-68
2022/05/18 09:43:16;;;;;;;7.03;1.75;;;19.30;44.50;;;;;;5079282;28;20209;-68
2022/05/18 09:45:47;;;;;;;4.30;0.77;;;19.60;44.80;;;;;;5070857;28;20716;-66
2022/05/18 09:48:16;;;;;;;3.22;1.13;;;19.90;44.20;;;;;;5073923;28;20666;-66
2022/05/18 09:50:48;;;;;;;3.47;1.70;;;19.90;43.60;;;;;;5080373;28;20301;-68
2022/05/18 09:53:16;;;;;;;5.30;1.75;;;20.00;43.70;;;;;;5071509;28;20204;-68
2022/05/18 09:55:46;;;;;;;2.40;1.08;;;20.20;43.80;;;;;;5069930;28;20566;-66
2022/05/18 09:58:17;;;;;;;3.08;1.35;;;20.30;43.10;;;;;;5071984;28;20265;-67
2022/05/18 10:00:44;;;;;;;4.82;1.10;;;20.40;42.80;;;;;;5075871;28;20220;-67
2022/05/18 10:09:11;;;;;;;1.35;0.60;;;20.60;42.40;;;;;;5021831;28;20249;-68
2022/05/18 10:11:39;;;;;;;3.22;0.80;;;20.60;41.90;;;;;;5080704;28;20208;-69
2022/05/18 10:14:08;;;;;;;3.30;1.15;;;20.40;41.90;;;;;;5075507;28;20241;-69
2022/05/18 10:16:40;;;;;;;2.22;0.70;;;20.40;42.20;;;;;;5068147;28;20204;-69
2022/05/18 10:19:15;;;;;;;2.10;0.60;;;20.40;42.30;;;;;;5073432;28;20217;-69
2022/05/18 10:21:52;;;;;;;1.80;0.90;;;20.40;42.60;;;;;;5078515;28;20196;-69
2022/05/18 10:24:36;;;;;;;1.33;0.80;;;20.50;42.60;;;;;;5075180;28;20302;-67
2022/05/18 10:27:12;;;;;;;3.13;0.88;;;20.60;42.30;;;;;;5068490;28;20232;-69
2022/05/18 10:29:39;;;;;;;3.67;0.80;;;20.70;42.00;;;;;;5078801;28;20739;-69
2022/05/18 10:32:09;;;;;;;2.33;0.90;;;20.90;42.10;;;;;;5092540;28;20212;-68
2022/05/18 10:34:43;;;;;;;1.73;1.00;;;21.00;41.70;;;;;;5068830;28;20209;-68
2022/05/18 10:37:15;;;;;;;3.92;1.00;;;21.10;41.90;;;;;;5074205;28;20212;-67
2022/05/18 10:39:44;;;;;;;1.90;0.68;;;21.30;41.70;;;;;;5075648;28;20205;-68
2022/05/18 10:42:20;;;;;;;4.30;0.93;;;21.50;41.40;;;;;;5070253;28;20297;-69
2022/05/18 10:44:48;;;;;;;2.97;0.80;;;21.70;40.80;;;;;;5071770;28;20747;-69
2022/05/18 10:47:21;;;;;;;4.88;1.52;;;21.90;40.40;;;;;;5073641;28;20201;-69
2022/05/18 10:49:48;;;;;;;1.35;1.00;;;22.10;40.20;;;;;;5070682;28;20668;-67
2022/05/18 10:52:19;;;;;;;0.60;0.60;;;22.10;40.10;;;;;;5077936;28;20281;-69
2022/05/18 10:54:56;;;;;;;4.30;0.90;;;22.10;38.60;;;;;;5076154;28;20298;-69
2022/05/18 10:57:31;;;;;;;3.78;0.70;;;22.00;38.70;;;;;;5077082;28;20201;-69
2022/05/18 11:00:07;;;;;;;3.35;0.60;;;22.10;38.50;;;;;;5079675;28;20205;-68
2022/05/18 11:02:41;;;;;;;3.63;0.55;;;22.20;38.20;;;;;;5085072;28;20653;-70
2022/05/18 11:05:19;;;;;;;2.03;0.60;;;22.30;37.80;;;;;;5073585;28;20232;-69
2022/05/18 11:07:49;;;;;;;1.27;0.70;;;22.30;37.50;;;;;;5076324;28;20201;-69
2022/05/18 11:10:16;;;;;;;1.83;0.70;;;22.20;37.50;;;;;;5077739;28;20209;-68
2022/05/18 11:12:49;;;;;;;1.33;1.13;;;22.10;37.70;;;;;;5081706;28;20644;-69
2022/05/18 11:15:24;;;;;;;5.40;1.13;;;22.20;38.50;;;;;;5070530;28;20225;-68
2022/05/18 11:18:04;;;;;;;3.05;1.27;;;22.20;38.50;;;;;;5083927;28;20265;-69
2022/05/18 11:20:41;;;;;;;2.45;1.20;;;22.20;38.50;;;;;;5078580;28;20531;-70
2022/05/18 11:23:30;;;;;;;2.03;0.75;;;22.30;38.50;;;;;;5081136;28;20679;-68
2022/05/18 11:26:09;;;;;;;3.30;0.85;;;22.40;38.40;;;;;;5074908;28;20332;-68
2022/05/18 11:28:45;;;;;;;4.90;1.00;;;22.50;37.00;;;;;;5066238;28;20225;-70
2022/05/18 11:31:42;;;;;;;1.58;0.80;;;22.40;36.40;;;;;;5076178;28;20283;-69
2022/05/18 11:34:21;;;;;;;3.10;0.93;;;22.20;36.50;;;;;;5070657;28;20201;-70
2022/05/18 11:36:59;;;;;;;3.17;0.70;;;22.20;36.50;;;;;;5078555;28;20193;-70
2022/05/18 11:39:33;;;;;;;2.40;0.55;;;22.20;36.50;;;;;;5073122;28;20288;-70
2022/05/18 11:42:17;;;;;;;2.33;1.02;;;22.20;37.00;;;;;;5075759;28;20208;-70
2022/05/18 11:44:56;;;;;;;1.88;0.60;;;22.30;37.40;;;;;;5071470;28;20200;-70
2022/05/18 11:47:38;;;;;;;1.20;0.60;;;22.20;37.50;;;;;;5074741;28;20595;-71
2022/05/18 11:50:19;;;;;;;1.88;0.90;;;22.30;37.80;;;;;;5068670;28;20259;-70
2022/05/18 11:53:01;;;;;;;2.35;0.82;;;22.30;38.00;;;;;;5080250;28;20561;-70
2022/05/18 11:55:39;;;;;;;1.83;0.50;;;22.50;37.60;;;;;;5085457;28;20228;-67
2022/05/18 11:58:18;;;;;;;3.00;0.70;;;22.60;37.40;;;;;;5087839;28;20246;-67
2022/05/18 12:00:58;;;;;;;1.27;0.70;;;22.70;37.30;;;;;;5083249;28;20204;-67
2022/05/18 12:03:59;;;;;;;3.15;0.93;;;22.80;36.90;;;;;;5079208;28;20217;-68
2022/05/18 12:06:50;;;;;;;3.60;0.60;;;22.80;36.50;;;;;;5076358;28;20231;-67
2022/05/18 12:09:45;;;;;;;3.63;0.88;;;22.70;36.60;;;;;;5090195;28;20199;-70
2022/05/18 12:12:24;;;;;;;1.00;0.65;;;22.60;36.70;;;;;;5080827;28;20197;-70
2022/05/18 12:15:02;;;;;;;3.33;0.80;;;22.60;36.80;;;;;;5087697;28;20323;-70
2022/05/18 12:17:37;;;;;;;0.90;0.60;;;22.50;35.40;;;;;;5085925;28;20634;-70
2022/05/18 12:20:08;;;;;;;3.58;0.60;;;22.50;35.60;;;;;;5074776;28;20201;-70
2022/05/18 12:22:40;;;;;;;3.63;0.55;;;22.30;35.20;;;;;;5080936;28;20634;-69
2022/05/18 12:25:10;;;;;;;3.65;1.10;;;22.30;35.30;;;;;;5088180;28;20638;-71
2022/05/18 12:27:40;;;;;;;4.07;1.02;;;22.40;35.60;;;;;;5086275;28;20312;-69
2022/05/18 12:30:10;;;;;;;1.48;0.70;;;22.50;35.70;;;;;;5073071;28;20747;-69
2022/05/18 12:32:38;;;;;;;0.93;0.60;;;22.60;34.90;;;;;;5071525;28;20201;-69
2022/05/18 12:35:13;;;;;;;0.90;0.70;;;22.60;35.00;;;;;;5076785;28;20225;-69
2022/05/18 12:37:52;;;;;;;1.05;0.60;;;22.50;35.60;;;;;;5082148;28;20188;-68
2022/05/18 12:40:30;;;;;;;3.75;0.80;;;22.60;36.20;;;;;;5086680;28;20231;-70
2022/05/18 12:43:04;;;;;;;3.83;0.70;;;22.70;35.80;;;;;;5087180;28;20222;-70
2022/05/18 12:45:38;;;;;;;1.23;0.70;;;22.80;35.50;;;;;;5081095;28;20293;-70
2022/05/18 12:48:14;;;;;;;2.95;0.50;;;22.90;35.10;;;;;;5088304;28;20226;-70
2022/05/18 12:50:44;;;;;;;2.03;0.75;;;23.00;35.10;;;;;;5086346;28;20680;-70
2022/05/18 12:53:20;;;;;;;2.20;0.80;;;23.10;35.00;;;;;;5081259;28;20201;-69
2022/05/18 12:55:58;;;;;;;2.70;0.70;;;23.10;34.90;;;;;;5087898;28;20227;-71
2022/05/18 12:58:30;;;;;;;2.08;0.68;;;23.10;35.20;;;;;;5087094;28;20204;-70
2022/05/18 13:01:04;;;;;;;3.65;0.70;;;23.20;35.50;;;;;;5086259;28;20673;-71
2022/05/18 13:03:58;;;;;;;1.85;0.60;;;23.20;34.80;;;;;;5084631;28;20215;-71
2022/05/18 13:06:49;;;;;;;1.27;0.70;;;23.20;34.10;;;;;;5086123;28;20672;-69
2022/05/18 13:09:40;;;;;;;1.45;0.70;;;23.30;33.80;;;;;;5086476;28;20611;-70
2022/05/18 13:12:30;;;;;;;1.48;0.70;;;23.20;33.50;;;;;;5073241;28;20208;-69
2022/05/18 13:15:03;;;;;;;1.90;0.65;;;23.20;33.70;;;;;;5075578;28;20228;-69
2022/05/18 13:17:49;;;;;;;6.40;1.00;;;23.20;33.90;;;;;;5074095;28;20262;-70
2022/05/18 13:20:42;;;;;;;2.92;0.65;;;23.10;33.90;;;;;;5081850;28;20229;-69
2022/05/18 13:23:23;;;;;;;1.00;0.68;;;23.10;34.30;;;;;;5074038;28;20244;-69
2022/05/18 13:25:54;;;;;;;1.10;0.80;;;23.20;34.20;;;;;;5074363;28;20843;-70
2022/05/18 13:28:22;;;;;;;1.88;0.65;;;23.20;34.10;;;;;;5091963;28;20201;-70